sensor_id;sensor_type;location;lat;lon;timestamp;P1;durP1;ratioP1;P2;durP2;ratioP2
78404;SDS011;67689;43.592;1.418;2023-02-27T00:00:28;6.72;;;2.00;;
78404;SDS011;67689;43.592;1.418;2023-02-27T00:02:54;5.85;;;2.10;;
78404;SDS011;67689;43.592;1.418;2023-02-27T00:05:20;5.35;;;1.90;;
78404;SDS011;67689;43.592;1.418;2023-02-27T00:07:46;5.32;;;2.20;;
78404;SDS011;67689;43.592;1.418;2023-02-27T00:10:12;6.70;;;2.70;;
78404;SDS011;67689;43.592;1.418;2023-02-27T00:12:38;3.92;;;1.80;;
78404;SDS011;67689;43.592;1.418;2023-02-27T00:15:08;7.65;;;2.42;;
78404;SDS011;67689;43.592;1.418;2023-02-27T00:17:36;8.07;;;2.35;;
78404;SDS011;67689;43.592;1.418;2023-02-27T00:20:03;5.47;;;2.03;;
78404;SDS011;67689;43.592;1.418;2023-02-27T00:22:29;6.85;;;2.20;;
78404;SDS011;67689;43.592;1.418;2023-02-27T00:24:55;7.88;;;2.40;;
78404;SDS011;67689;43.592;1.418;2023-02-27T00:27:20;8.38;;;2.35;;
78404;SDS011;67689;43.592;1.418;2023-02-27T00:29:46;5.60;;;2.03;;
78404;SDS011;67689;43.592;1.418;2023-02-27T00:32:11;5.72;;;2.08;;
78404;SDS011;67689;43.592;1.418;2023-02-27T00:34:36;6.15;;;1.98;;
78404;SDS011;67689;43.592;1.418;2023-02-27T00:37:02;7.88;;;2.13;;
78404;SDS011;67689;43.592;1.418;2023-02-27T00:39:27;7.60;;;2.38;;
78404;SDS011;67689;43.592;1.418;2023-02-27T00:41:53;6.07;;;2.17;;
78404;SDS011;67689;43.592;1.418;2023-02-27T00:44:18;5.72;;;1.90;;
78404;SDS011;67689;43.592;1.418;2023-02-27T00:46:44;4.53;;;1.85;;
78404;SDS011;67689;43.592;1.418;2023-02-27T00:49:09;6.47;;;2.08;;
78404;SDS011;67689;43.592;1.418;2023-02-27T00:51:34;5.07;;;2.00;;
78404;SDS011;67689;43.592;1.418;2023-02-27T00:54:00;4.75;;;1.67;;
78404;SDS011;67689;43.592;1.418;2023-02-27T00:56:25;6.38;;;2.00;;
78404;SDS011;67689;43.592;1.418;2023-02-27T00:58:51;5.63;;;1.63;;
78404;SDS011;67689;43.592;1.418;2023-02-27T01:01:16;6.13;;;2.15;;
78404;SDS011;67689;43.592;1.418;2023-02-27T01:03:41;5.10;;;1.75;;
78404;SDS011;67689;43.592;1.418;2023-02-27T01:06:07;5.40;;;1.95;;
78404;SDS011;67689;43.592;1.418;2023-02-27T01:08:32;4.65;;;2.00;;
78404;SDS011;67689;43.592;1.418;2023-02-27T01:10:58;4.28;;;1.63;;
78404;SDS011;67689;43.592;1.418;2023-02-27T01:13:24;6.25;;;2.35;;
78404;SDS011;67689;43.592;1.418;2023-02-27T01:15:49;6.50;;;2.20;;
78404;SDS011;67689;43.592;1.418;2023-02-27T01:18:15;7.78;;;1.75;;
78404;SDS011;67689;43.592;1.418;2023-02-27T01:20:40;6.32;;;2.25;;
78404;SDS011;67689;43.592;1.418;2023-02-27T01:23:05;6.47;;;2.00;;
78404;SDS011;67689;43.592;1.418;2023-02-27T01:25:31;6.65;;;2.25;;
78404;SDS011;67689;43.592;1.418;2023-02-27T01:27:56;4.85;;;2.10;;
78404;SDS011;67689;43.592;1.418;2023-02-27T01:30:22;6.18;;;2.13;;
78404;SDS011;67689;43.592;1.418;2023-02-27T01:32:47;5.25;;;1.70;;
78404;SDS011;67689;43.592;1.418;2023-02-27T01:35:13;4.95;;;1.90;;
78404;SDS011;67689;43.592;1.418;2023-02-27T01:37:38;5.20;;;1.90;;
78404;SDS011;67689;43.592;1.418;2023-02-27T01:40:04;3.55;;;1.50;;
78404;SDS011;67689;43.592;1.418;2023-02-27T01:42:31;5.35;;;2.10;;
78404;SDS011;67689;43.592;1.418;2023-02-27T01:45:43;5.05;;;1.77;;
78404;SDS011;67689;43.592;1.418;2023-02-27T01:47:52;6.57;;;1.80;;
78404;SDS011;67689;43.592;1.418;2023-02-27T01:50:19;6.28;;;1.90;;
78404;SDS011;67689;43.592;1.418;2023-02-27T01:52:47;6.43;;;1.70;;
78404;SDS011;67689;43.592;1.418;2023-02-27T01:55:19;4.90;;;2.00;;
78404;SDS011;67689;43.592;1.418;2023-02-27T01:57:45;9.02;;;1.73;;
78404;SDS011;67689;43.592;1.418;2023-02-27T02:00:13;5.70;;;2.22;;
78404;SDS011;67689;43.592;1.418;2023-02-27T02:02:40;5.78;;;1.90;;
78404;SDS011;67689;43.592;1.418;2023-02-27T02:05:07;4.70;;;1.63;;
78404;SDS011;67689;43.592;1.418;2023-02-27T02:07:34;5.78;;;2.15;;
78404;SDS011;67689;43.592;1.418;2023-02-27T02:10:02;6.25;;;1.90;;
78404;SDS011;67689;43.592;1.418;2023-02-27T02:12:29;4.10;;;1.70;;
78404;SDS011;67689;43.592;1.418;2023-02-27T02:14:57;5.68;;;1.92;;
78404;SDS011;67689;43.592;1.418;2023-02-27T02:42:12;4.97;;;1.65;;
78404;SDS011;67689;43.592;1.418;2023-02-27T02:58:47;4.82;;;1.90;;
78404;SDS011;67689;43.592;1.418;2023-02-27T03:01:16;4.65;;;1.73;;
78404;SDS011;67689;43.592;1.418;2023-02-27T03:03:48;5.50;;;2.03;;
78404;SDS011;67689;43.592;1.418;2023-02-27T03:08:48;4.85;;;1.90;;
78404;SDS011;67689;43.592;1.418;2023-02-27T03:11:17;5.68;;;2.03;;
78404;SDS011;67689;43.592;1.418;2023-02-27T03:13:47;7.18;;;2.00;;
78404;SDS011;67689;43.592;1.418;2023-02-27T03:16:22;5.03;;;1.70;;
78404;SDS011;67689;43.592;1.418;2023-02-27T03:18:52;5.45;;;1.80;;
78404;SDS011;67689;43.592;1.418;2023-02-27T03:21:24;5.72;;;2.10;;
78404;SDS011;67689;43.592;1.418;2023-02-27T03:23:52;6.25;;;1.70;;
78404;SDS011;67689;43.592;1.418;2023-02-27T03:26:19;5.82;;;1.77;;
78404;SDS011;67689;43.592;1.418;2023-02-27T03:28:59;5.50;;;1.70;;
78404;SDS011;67689;43.592;1.418;2023-02-27T03:31:28;3.90;;;1.70;;
78404;SDS011;67689;43.592;1.418;2023-02-27T03:33:58;5.13;;;2.00;;
78404;SDS011;67689;43.592;1.418;2023-02-27T03:39:23;5.50;;;1.83;;
78404;SDS011;67689;43.592;1.418;2023-02-27T03:42:00;6.03;;;1.73;;
78404;SDS011;67689;43.592;1.418;2023-02-27T03:44:32;4.63;;;1.80;;
78404;SDS011;67689;43.592;1.418;2023-02-27T03:47:01;5.70;;;1.92;;
78404;SDS011;67689;43.592;1.418;2023-02-27T03:49:26;7.03;;;2.10;;
78404;SDS011;67689;43.592;1.418;2023-02-27T03:51:52;4.07;;;1.60;;
78404;SDS011;67689;43.592;1.418;2023-02-27T03:54:25;5.65;;;1.85;;
78404;SDS011;67689;43.592;1.418;2023-02-27T03:57:04;4.30;;;1.80;;
78404;SDS011;67689;43.592;1.418;2023-02-27T03:59:31;5.20;;;1.90;;
78404;SDS011;67689;43.592;1.418;2023-02-27T04:01:57;5.10;;;1.90;;
78404;SDS011;67689;43.592;1.418;2023-02-27T04:04:24;4.60;;;1.80;;
78404;SDS011;67689;43.592;1.418;2023-02-27T04:06:55;5.60;;;1.70;;
78404;SDS011;67689;43.592;1.418;2023-02-27T04:26:53;4.43;;;1.80;;
78404;SDS011;67689;43.592;1.418;2023-02-27T04:29:27;7.05;;;2.95;;
78404;SDS011;67689;43.592;1.418;2023-02-27T04:32:00;6.65;;;2.13;;
78404;SDS011;67689;43.592;1.418;2023-02-27T04:37:22;4.18;;;1.80;;
78404;SDS011;67689;43.592;1.418;2023-02-27T04:39:59;5.15;;;2.10;;
78404;SDS011;67689;43.592;1.418;2023-02-27T04:42:31;4.85;;;1.90;;
78404;SDS011;67689;43.592;1.418;2023-02-27T04:44:59;4.20;;;1.80;;
78404;SDS011;67689;43.592;1.418;2023-02-27T04:47:28;5.07;;;2.15;;
78404;SDS011;67689;43.592;1.418;2023-02-27T04:50:18;5.25;;;2.10;;
78404;SDS011;67689;43.592;1.418;2023-02-27T04:52:49;7.60;;;2.65;;
78404;SDS011;67689;43.592;1.418;2023-02-27T04:55:21;2.92;;;1.23;;
78404;SDS011;67689;43.592;1.418;2023-02-27T04:57:52;5.20;;;2.30;;
78404;SDS011;67689;43.592;1.418;2023-02-27T05:00:20;5.32;;;2.10;;
78404;SDS011;67689;43.592;1.418;2023-02-27T05:02:48;9.10;;;2.38;;
78404;SDS011;67689;43.592;1.418;2023-02-27T05:05:20;5.90;;;2.35;;
78404;SDS011;67689;43.592;1.418;2023-02-27T05:07:53;5.65;;;2.40;;
78404;SDS011;67689;43.592;1.418;2023-02-27T05:10:27;8.00;;;2.67;;
78404;SDS011;67689;43.592;1.418;2023-02-27T05:12:56;6.63;;;2.28;;
78404;SDS011;67689;43.592;1.418;2023-02-27T05:15:41;5.55;;;2.40;;
78404;SDS011;67689;43.592;1.418;2023-02-27T05:18:11;6.40;;;2.22;;
78404;SDS011;67689;43.592;1.418;2023-02-27T05:23:37;5.03;;;2.38;;
78404;SDS011;67689;43.592;1.418;2023-02-27T05:32:28;4.75;;;1.92;;
78404;SDS011;67689;43.592;1.418;2023-02-27T05:37:51;4.65;;;2.20;;
78404;SDS011;67689;43.592;1.418;2023-02-27T05:40:24;5.95;;;2.20;;
78404;SDS011;67689;43.592;1.418;2023-02-27T05:42:58;4.88;;;2.13;;
78404;SDS011;67689;43.592;1.418;2023-02-27T05:45:30;5.03;;;2.30;;
78404;SDS011;67689;43.592;1.418;2023-02-27T05:48:01;5.28;;;2.25;;
78404;SDS011;67689;43.592;1.418;2023-02-27T05:50:30;5.53;;;2.28;;
78404;SDS011;67689;43.592;1.418;2023-02-27T05:52:57;5.65;;;2.25;;
78404;SDS011;67689;43.592;1.418;2023-02-27T05:55:31;5.25;;;2.15;;
78404;SDS011;67689;43.592;1.418;2023-02-27T05:58:01;6.43;;;2.22;;
78404;SDS011;67689;43.592;1.418;2023-02-27T06:00:47;5.75;;;2.53;;
78404;SDS011;67689;43.592;1.418;2023-02-27T06:03:22;5.30;;;1.98;;
78404;SDS011;67689;43.592;1.418;2023-02-27T06:05:50;5.60;;;2.17;;
78404;SDS011;67689;43.592;1.418;2023-02-27T06:08:19;5.88;;;2.38;;
78404;SDS011;67689;43.592;1.418;2023-02-27T06:10:46;6.47;;;2.50;;
78404;SDS011;67689;43.592;1.418;2023-02-27T06:13:13;5.43;;;2.45;;
78404;SDS011;67689;43.592;1.418;2023-02-27T06:15:39;6.60;;;2.58;;
78404;SDS011;67689;43.592;1.418;2023-02-27T06:18:05;5.30;;;2.80;;
78404;SDS011;67689;43.592;1.418;2023-02-27T06:20:30;6.35;;;2.60;;
78404;SDS011;67689;43.592;1.418;2023-02-27T06:22:56;5.50;;;2.60;;
78404;SDS011;67689;43.592;1.418;2023-02-27T06:25:21;6.32;;;2.60;;
78404;SDS011;67689;43.592;1.418;2023-02-27T06:27:47;7.00;;;2.88;;
78404;SDS011;67689;43.592;1.418;2023-02-27T06:30:12;6.32;;;2.83;;
78404;SDS011;67689;43.592;1.418;2023-02-27T06:32:38;7.07;;;3.20;;
78404;SDS011;67689;43.592;1.418;2023-02-27T06:35:04;8.20;;;3.85;;
78404;SDS011;67689;43.592;1.418;2023-02-27T06:37:30;6.65;;;2.90;;
78404;SDS011;67689;43.592;1.418;2023-02-27T06:39:56;7.75;;;3.10;;
78404;SDS011;67689;43.592;1.418;2023-02-27T06:42:22;7.35;;;2.90;;
78404;SDS011;67689;43.592;1.418;2023-02-27T06:44:47;8.52;;;3.40;;
78404;SDS011;67689;43.592;1.418;2023-02-27T06:47:13;6.63;;;3.05;;
78404;SDS011;67689;43.592;1.418;2023-02-27T06:49:38;9.07;;;2.95;;
78404;SDS011;67689;43.592;1.418;2023-02-27T06:52:03;9.00;;;3.13;;
78404;SDS011;67689;43.592;1.418;2023-02-27T06:54:29;6.60;;;3.15;;
78404;SDS011;67689;43.592;1.418;2023-02-27T06:56:54;8.98;;;3.10;;
78404;SDS011;67689;43.592;1.418;2023-02-27T06:59:20;7.97;;;3.30;;
78404;SDS011;67689;43.592;1.418;2023-02-27T07:01:45;6.57;;;3.20;;
78404;SDS011;67689;43.592;1.418;2023-02-27T07:04:14;8.68;;;3.10;;
78404;SDS011;67689;43.592;1.418;2023-02-27T07:06:40;6.38;;;2.80;;
78404;SDS011;67689;43.592;1.418;2023-02-27T07:09:05;8.18;;;3.10;;
78404;SDS011;67689;43.592;1.418;2023-02-27T07:11:31;7.15;;;2.83;;
78404;SDS011;67689;43.592;1.418;2023-02-27T07:13:56;6.32;;;3.03;;
78404;SDS011;67689;43.592;1.418;2023-02-27T07:16:22;7.80;;;3.17;;
78404;SDS011;67689;43.592;1.418;2023-02-27T07:18:47;7.88;;;3.30;;
78404;SDS011;67689;43.592;1.418;2023-02-27T07:21:12;7.35;;;2.97;;
78404;SDS011;67689;43.592;1.418;2023-02-27T07:23:39;5.97;;;3.03;;
78404;SDS011;67689;43.592;1.418;2023-02-27T07:26:06;6.03;;;2.85;;
78404;SDS011;67689;43.592;1.418;2023-02-27T07:28:32;7.97;;;3.45;;
78404;SDS011;67689;43.592;1.418;2023-02-27T07:30:58;5.40;;;2.58;;
78404;SDS011;67689;43.592;1.418;2023-02-27T07:33:24;7.78;;;2.78;;
78404;SDS011;67689;43.592;1.418;2023-02-27T07:35:49;6.53;;;3.10;;
78404;SDS011;67689;43.592;1.418;2023-02-27T07:38:15;6.57;;;3.10;;
78404;SDS011;67689;43.592;1.418;2023-02-27T07:40:40;7.60;;;2.92;;
78404;SDS011;67689;43.592;1.418;2023-02-27T07:43:06;7.20;;;3.00;;
78404;SDS011;67689;43.592;1.418;2023-02-27T07:45:31;6.57;;;2.97;;
78404;SDS011;67689;43.592;1.418;2023-02-27T07:47:57;6.30;;;2.67;;
78404;SDS011;67689;43.592;1.418;2023-02-27T07:50:22;10.38;;;3.17;;
78404;SDS011;67689;43.592;1.418;2023-02-27T07:52:47;7.93;;;3.50;;
78404;SDS011;67689;43.592;1.418;2023-02-27T07:55:13;9.75;;;4.53;;
78404;SDS011;67689;43.592;1.418;2023-02-27T07:57:43;9.95;;;5.03;;
78404;SDS011;67689;43.592;1.418;2023-02-27T08:00:09;9.25;;;3.80;;
78404;SDS011;67689;43.592;1.418;2023-02-27T08:02:35;7.30;;;3.20;;
78404;SDS011;67689;43.592;1.418;2023-02-27T08:05:00;6.68;;;3.25;;
78404;SDS011;67689;43.592;1.418;2023-02-27T08:07:25;7.25;;;2.95;;
78404;SDS011;67689;43.592;1.418;2023-02-27T08:09:51;8.30;;;3.17;;
78404;SDS011;67689;43.592;1.418;2023-02-27T08:12:16;6.15;;;2.70;;
78404;SDS011;67689;43.592;1.418;2023-02-27T08:14:41;9.00;;;3.40;;
78404;SDS011;67689;43.592;1.418;2023-02-27T08:17:07;7.82;;;3.45;;
78404;SDS011;67689;43.592;1.418;2023-02-27T08:19:32;7.90;;;3.78;;
78404;SDS011;67689;43.592;1.418;2023-02-27T08:21:58;7.60;;;3.80;;
78404;SDS011;67689;43.592;1.418;2023-02-27T08:24:23;10.05;;;3.17;;
78404;SDS011;67689;43.592;1.418;2023-02-27T08:26:49;8.60;;;3.47;;
78404;SDS011;67689;43.592;1.418;2023-02-27T08:29:14;9.50;;;3.83;;
78404;SDS011;67689;43.592;1.418;2023-02-27T08:31:40;12.65;;;6.07;;
78404;SDS011;67689;43.592;1.418;2023-02-27T08:34:05;8.88;;;4.00;;
78404;SDS011;67689;43.592;1.418;2023-02-27T08:36:31;8.50;;;4.22;;
78404;SDS011;67689;43.592;1.418;2023-02-27T08:38:56;6.85;;;3.10;;
78404;SDS011;67689;43.592;1.418;2023-02-27T08:41:21;6.13;;;2.78;;
78404;SDS011;67689;43.592;1.418;2023-02-27T08:43:47;7.15;;;3.30;;
78404;SDS011;67689;43.592;1.418;2023-02-27T08:46:13;7.45;;;3.28;;
78404;SDS011;67689;43.592;1.418;2023-02-27T08:48:38;7.00;;;3.28;;
78404;SDS011;67689;43.592;1.418;2023-02-27T08:51:06;7.90;;;3.10;;
78404;SDS011;67689;43.592;1.418;2023-02-27T08:53:32;7.80;;;3.20;;
78404;SDS011;67689;43.592;1.418;2023-02-27T08:55:57;6.78;;;3.15;;
78404;SDS011;67689;43.592;1.418;2023-02-27T08:58:23;7.63;;;3.10;;
78404;SDS011;67689;43.592;1.418;2023-02-27T09:00:48;6.80;;;3.10;;
78404;SDS011;67689;43.592;1.418;2023-02-27T09:03:14;7.30;;;3.40;;
78404;SDS011;67689;43.592;1.418;2023-02-27T09:05:40;7.00;;;3.17;;
78404;SDS011;67689;43.592;1.418;2023-02-27T09:08:06;7.22;;;3.20;;
78404;SDS011;67689;43.592;1.418;2023-02-27T09:10:31;6.43;;;2.97;;
78404;SDS011;67689;43.592;1.418;2023-02-27T09:12:57;8.85;;;3.00;;
78404;SDS011;67689;43.592;1.418;2023-02-27T09:15:23;6.88;;;3.20;;
78404;SDS011;67689;43.592;1.418;2023-02-27T09:17:48;6.00;;;2.92;;
78404;SDS011;67689;43.592;1.418;2023-02-27T09:20:14;7.75;;;3.15;;
78404;SDS011;67689;43.592;1.418;2023-02-27T09:22:40;6.03;;;2.78;;
78404;SDS011;67689;43.592;1.418;2023-02-27T09:25:06;7.68;;;3.17;;
78404;SDS011;67689;43.592;1.418;2023-02-27T09:27:31;5.60;;;2.58;;
78404;SDS011;67689;43.592;1.418;2023-02-27T09:29:57;6.43;;;2.70;;
78404;SDS011;67689;43.592;1.418;2023-02-27T09:32:23;7.82;;;3.45;;
78404;SDS011;67689;43.592;1.418;2023-02-27T09:34:49;7.97;;;2.92;;
78404;SDS011;67689;43.592;1.418;2023-02-27T09:37:14;8.13;;;3.15;;
78404;SDS011;67689;43.592;1.418;2023-02-27T09:39:40;7.18;;;3.08;;
78404;SDS011;67689;43.592;1.418;2023-02-27T09:50:05;7.78;;;2.97;;
78404;SDS011;67689;43.592;1.418;2023-02-27T09:52:34;6.78;;;3.30;;
78404;SDS011;67689;43.592;1.418;2023-02-27T09:55:01;8.02;;;3.30;;
78404;SDS011;67689;43.592;1.418;2023-02-27T09:57:51;6.28;;;2.83;;
78404;SDS011;67689;43.592;1.418;2023-02-27T10:17:21;7.05;;;2.80;;
78404;SDS011;67689;43.592;1.418;2023-02-27T10:20:06;6.15;;;2.60;;
78404;SDS011;67689;43.592;1.418;2023-02-27T10:22:38;6.10;;;2.42;;
78404;SDS011;67689;43.592;1.418;2023-02-27T10:25:16;5.93;;;2.60;;
78404;SDS011;67689;43.592;1.418;2023-02-27T10:27:44;6.65;;;2.30;;
78404;SDS011;67689;43.592;1.418;2023-02-27T10:30:16;7.53;;;2.60;;
78404;SDS011;67689;43.592;1.418;2023-02-27T10:32:42;6.43;;;2.63;;
78404;SDS011;67689;43.592;1.418;2023-02-27T10:35:09;5.90;;;3.00;;
78404;SDS011;67689;43.592;1.418;2023-02-27T10:38:03;6.22;;;2.65;;
78404;SDS011;67689;43.592;1.418;2023-02-27T10:40:30;5.55;;;2.42;;
78404;SDS011;67689;43.592;1.418;2023-02-27T10:43:00;6.32;;;2.88;;
78404;SDS011;67689;43.592;1.418;2023-02-27T10:45:26;7.20;;;3.08;;
78404;SDS011;67689;43.592;1.418;2023-02-27T10:47:52;7.20;;;2.80;;
78404;SDS011;67689;43.592;1.418;2023-02-27T10:53:01;6.45;;;2.78;;
78404;SDS011;67689;43.592;1.418;2023-02-27T10:55:32;6.78;;;2.95;;
78404;SDS011;67689;43.592;1.418;2023-02-27T10:58:00;7.43;;;3.00;;
78404;SDS011;67689;43.592;1.418;2023-02-27T11:02:59;6.63;;;2.85;;
78404;SDS011;67689;43.592;1.418;2023-02-27T11:05:28;5.63;;;2.72;;
78404;SDS011;67689;43.592;1.418;2023-02-27T11:07:56;6.85;;;2.58;;
78404;SDS011;67689;43.592;1.418;2023-02-27T11:10:23;7.68;;;3.35;;
78404;SDS011;67689;43.592;1.418;2023-02-27T11:15:28;8.27;;;2.88;;
78404;SDS011;67689;43.592;1.418;2023-02-27T11:20:43;7.50;;;2.85;;
78404;SDS011;67689;43.592;1.418;2023-02-27T11:23:18;6.70;;;2.72;;
78404;SDS011;67689;43.592;1.418;2023-02-27T11:25:45;7.78;;;2.90;;
78404;SDS011;67689;43.592;1.418;2023-02-27T11:28:13;5.90;;;3.05;;
78404;SDS011;67689;43.592;1.418;2023-02-27T11:31:01;6.18;;;2.70;;
78404;SDS011;67689;43.592;1.418;2023-02-27T11:33:28;5.63;;;2.70;;
78404;SDS011;67689;43.592;1.418;2023-02-27T11:35:56;5.65;;;2.92;;
78404;SDS011;67689;43.592;1.418;2023-02-27T11:38:23;8.18;;;2.83;;
78404;SDS011;67689;43.592;1.418;2023-02-27T11:40:53;5.97;;;2.80;;
78404;SDS011;67689;43.592;1.418;2023-02-27T11:43:20;7.13;;;3.30;;
78404;SDS011;67689;43.592;1.418;2023-02-27T11:45:51;8.57;;;3.03;;
78404;SDS011;67689;43.592;1.418;2023-02-27T11:48:30;6.18;;;3.05;;
78404;SDS011;67689;43.592;1.418;2023-02-27T11:56:32;7.53;;;2.40;;
78404;SDS011;67689;43.592;1.418;2023-02-27T11:59:02;5.70;;;2.50;;
78404;SDS011;67689;43.592;1.418;2023-02-27T12:01:36;6.18;;;2.35;;
78404;SDS011;67689;43.592;1.418;2023-02-27T12:04:17;7.30;;;3.10;;
78404;SDS011;67689;43.592;1.418;2023-02-27T12:06:48;8.45;;;2.78;;
78404;SDS011;67689;43.592;1.418;2023-02-27T12:11:59;8.45;;;2.88;;
78404;SDS011;67689;43.592;1.418;2023-02-27T12:14:28;5.75;;;2.85;;
78404;SDS011;67689;43.592;1.418;2023-02-27T12:19:59;6.05;;;2.80;;
78404;SDS011;67689;43.592;1.418;2023-02-27T12:22:30;6.57;;;2.40;;
78404;SDS011;67689;43.592;1.418;2023-02-27T12:24:59;5.00;;;2.25;;
78404;SDS011;67689;43.592;1.418;2023-02-27T12:27:32;6.65;;;3.20;;
78404;SDS011;67689;43.592;1.418;2023-02-27T12:30:37;12.18;;;4.22;;
78404;SDS011;67689;43.592;1.418;2023-02-27T12:33:10;7.82;;;3.25;;
78404;SDS011;67689;43.592;1.418;2023-02-27T12:35:40;6.32;;;2.90;;
78404;SDS011;67689;43.592;1.418;2023-02-27T12:38:07;7.97;;;2.70;;
78404;SDS011;67689;43.592;1.418;2023-02-27T12:40:36;5.65;;;2.72;;
78404;SDS011;67689;43.592;1.418;2023-02-27T12:43:16;5.20;;;2.47;;
78404;SDS011;67689;43.592;1.418;2023-02-27T12:48:32;6.82;;;2.63;;
78404;SDS011;67689;43.592;1.418;2023-02-27T12:56:58;6.18;;;2.83;;
78404;SDS011;67689;43.592;1.418;2023-02-27T13:05:51;6.25;;;2.72;;
78404;SDS011;67689;43.592;1.418;2023-02-27T13:13:39;10.98;;;3.25;;
78404;SDS011;67689;43.592;1.418;2023-02-27T13:16:28;40.28;;;4.88;;
78404;SDS011;67689;43.592;1.418;2023-02-27T13:19:12;9.65;;;3.20;;
78404;SDS011;67689;43.592;1.418;2023-02-27T13:21:53;6.65;;;2.60;;
78404;SDS011;67689;43.592;1.418;2023-02-27T13:27:13;9.70;;;3.33;;
78404;SDS011;67689;43.592;1.418;2023-02-27T13:29:45;8.55;;;2.53;;
78404;SDS011;67689;43.592;1.418;2023-02-27T13:38:28;7.55;;;3.33;;
78404;SDS011;67689;43.592;1.418;2023-02-27T13:46:41;24.15;;;4.25;;
78404;SDS011;67689;43.592;1.418;2023-02-27T14:01:55;6.47;;;2.70;;
78404;SDS011;67689;43.592;1.418;2023-02-27T14:04:24;6.15;;;2.60;;
78404;SDS011;67689;43.592;1.418;2023-02-27T14:07:25;7.38;;;3.10;;
78404;SDS011;67689;43.592;1.418;2023-02-27T14:09:45;5.25;;;2.42;;
78404;SDS011;67689;43.592;1.418;2023-02-27T14:12:26;7.05;;;2.90;;
78404;SDS011;67689;43.592;1.418;2023-02-27T14:15:05;5.97;;;2.80;;
78404;SDS011;67689;43.592;1.418;2023-02-27T14:17:51;7.88;;;3.28;;
78404;SDS011;67689;43.592;1.418;2023-02-27T14:23:44;6.63;;;2.53;;
78404;SDS011;67689;43.592;1.418;2023-02-27T14:26:03;7.10;;;2.90;;
78404;SDS011;67689;43.592;1.418;2023-02-27T14:28:41;6.22;;;2.80;;
78404;SDS011;67689;43.592;1.418;2023-02-27T14:31:23;6.57;;;2.53;;
78404;SDS011;67689;43.592;1.418;2023-02-27T14:33:51;6.78;;;2.80;;
78404;SDS011;67689;43.592;1.418;2023-02-27T14:36:24;5.20;;;2.70;;
78404;SDS011;67689;43.592;1.418;2023-02-27T14:38:55;6.55;;;2.72;;
78404;SDS011;67689;43.592;1.418;2023-02-27T14:43:56;6.75;;;3.08;;
78404;SDS011;67689;43.592;1.418;2023-02-27T14:46:27;7.18;;;3.22;;
78404;SDS011;67689;43.592;1.418;2023-02-27T14:48:55;5.97;;;3.10;;
78404;SDS011;67689;43.592;1.418;2023-02-27T14:51:22;8.90;;;2.90;;
78404;SDS011;67689;43.592;1.418;2023-02-27T14:54:02;5.65;;;2.75;;
78404;SDS011;67689;43.592;1.418;2023-02-27T14:56:35;5.53;;;3.05;;
78404;SDS011;67689;43.592;1.418;2023-02-27T14:59:01;6.70;;;2.55;;
78404;SDS011;67689;43.592;1.418;2023-02-27T15:01:27;5.93;;;2.90;;
78404;SDS011;67689;43.592;1.418;2023-02-27T15:03:59;5.70;;;2.80;;
78404;SDS011;67689;43.592;1.418;2023-02-27T15:06:41;6.85;;;3.00;;
78404;SDS011;67689;43.592;1.418;2023-02-27T15:09:12;7.50;;;2.80;;
78404;SDS011;67689;43.592;1.418;2023-02-27T15:12:01;5.53;;;2.42;;
78404;SDS011;67689;43.592;1.418;2023-02-27T15:14:32;6.35;;;2.75;;
78404;SDS011;67689;43.592;1.418;2023-02-27T15:16:59;5.35;;;2.60;;
78404;SDS011;67689;43.592;1.418;2023-02-27T15:19:25;6.78;;;2.88;;
78404;SDS011;67689;43.592;1.418;2023-02-27T15:21:52;5.25;;;2.70;;
78404;SDS011;67689;43.592;1.418;2023-02-27T15:24:23;10.98;;;2.90;;
78404;SDS011;67689;43.592;1.418;2023-02-27T15:26:55;6.30;;;2.80;;
78404;SDS011;67689;43.592;1.418;2023-02-27T15:29:24;7.00;;;2.90;;
78404;SDS011;67689;43.592;1.418;2023-02-27T15:31:54;7.00;;;3.00;;
78404;SDS011;67689;43.592;1.418;2023-02-27T15:34:20;6.43;;;2.90;;
78404;SDS011;67689;43.592;1.418;2023-02-27T15:36:47;8.77;;;3.22;;
78404;SDS011;67689;43.592;1.418;2023-02-27T15:39:19;6.53;;;2.90;;
78404;SDS011;67689;43.592;1.418;2023-02-27T15:41:47;6.00;;;2.88;;
78404;SDS011;67689;43.592;1.418;2023-02-27T15:44:14;7.35;;;3.22;;
78404;SDS011;67689;43.592;1.418;2023-02-27T15:46:40;6.35;;;3.10;;
78404;SDS011;67689;43.592;1.418;2023-02-27T15:49:08;6.50;;;2.97;;
78404;SDS011;67689;43.592;1.418;2023-02-27T15:51:40;8.45;;;3.00;;
78404;SDS011;67689;43.592;1.418;2023-02-27T15:54:06;6.15;;;2.75;;
78404;SDS011;67689;43.592;1.418;2023-02-27T15:56:34;7.90;;;3.25;;
78404;SDS011;67689;43.592;1.418;2023-02-27T15:59:01;6.78;;;3.28;;
78404;SDS011;67689;43.592;1.418;2023-02-27T16:01:27;6.80;;;3.25;;
78404;SDS011;67689;43.592;1.418;2023-02-27T16:03:58;7.05;;;3.25;;
78404;SDS011;67689;43.592;1.418;2023-02-27T16:06:29;7.65;;;3.63;;
78404;SDS011;67689;43.592;1.418;2023-02-27T16:09:00;9.85;;;3.58;;
78404;SDS011;67689;43.592;1.418;2023-02-27T16:11:42;8.00;;;3.72;;
78404;SDS011;67689;43.592;1.418;2023-02-27T16:14:34;9.52;;;3.42;;
78404;SDS011;67689;43.592;1.418;2023-02-27T16:16:59;8.35;;;3.88;;
78404;SDS011;67689;43.592;1.418;2023-02-27T16:19:26;8.65;;;3.60;;
78404;SDS011;67689;43.592;1.418;2023-02-27T16:22:04;7.68;;;3.58;;
78404;SDS011;67689;43.592;1.418;2023-02-27T16:24:40;9.20;;;3.83;;
78404;SDS011;67689;43.592;1.418;2023-02-27T16:27:14;10.65;;;4.63;;
78404;SDS011;67689;43.592;1.418;2023-02-27T16:29:42;14.65;;;4.20;;
78404;SDS011;67689;43.592;1.418;2023-02-27T16:32:27;8.10;;;3.40;;
78404;SDS011;67689;43.592;1.418;2023-02-27T16:35:05;10.83;;;4.17;;
78404;SDS011;67689;43.592;1.418;2023-02-27T16:37:36;8.52;;;3.55;;
78404;SDS011;67689;43.592;1.418;2023-02-27T16:40:24;9.35;;;3.70;;
78404;SDS011;67689;43.592;1.418;2023-02-27T16:42:50;7.70;;;3.57;;
78404;SDS011;67689;43.592;1.418;2023-02-27T16:45:17;7.07;;;3.47;;
78404;SDS011;67689;43.592;1.418;2023-02-27T16:47:47;12.55;;;3.83;;
78404;SDS011;67689;43.592;1.418;2023-02-27T16:50:14;8.30;;;3.63;;
78404;SDS011;67689;43.592;1.418;2023-02-27T16:52:43;7.80;;;3.60;;
78404;SDS011;67689;43.592;1.418;2023-02-27T16:55:08;7.13;;;3.40;;
78404;SDS011;67689;43.592;1.418;2023-02-27T16:57:34;6.68;;;3.10;;
78404;SDS011;67689;43.592;1.418;2023-02-27T17:00:00;9.00;;;3.83;;
78404;SDS011;67689;43.592;1.418;2023-02-27T17:02:25;7.03;;;3.35;;
78404;SDS011;67689;43.592;1.418;2023-02-27T17:04:51;7.20;;;3.35;;
78404;SDS011;67689;43.592;1.418;2023-02-27T17:07:16;7.32;;;3.35;;
78404;SDS011;67689;43.592;1.418;2023-02-27T17:09:42;7.78;;;3.28;;
78404;SDS011;67689;43.592;1.418;2023-02-27T17:12:08;7.40;;;3.65;;
78404;SDS011;67689;43.592;1.418;2023-02-27T17:14:34;8.30;;;3.22;;
78404;SDS011;67689;43.592;1.418;2023-02-27T17:16:59;6.72;;;3.28;;
78404;SDS011;67689;43.592;1.418;2023-02-27T17:19:25;7.40;;;3.38;;
78404;SDS011;67689;43.592;1.418;2023-02-27T17:21:51;7.47;;;3.35;;
78404;SDS011;67689;43.592;1.418;2023-02-27T17:24:16;7.80;;;3.75;;
78404;SDS011;67689;43.592;1.418;2023-02-27T17:26:42;10.43;;;4.10;;
78404;SDS011;67689;43.592;1.418;2023-02-27T17:29:07;9.23;;;3.70;;
78404;SDS011;67689;43.592;1.418;2023-02-27T17:31:33;8.02;;;4.00;;
78404;SDS011;67689;43.592;1.418;2023-02-27T17:34:01;8.43;;;4.18;;
78404;SDS011;67689;43.592;1.418;2023-02-27T17:36:27;11.40;;;4.07;;
78404;SDS011;67689;43.592;1.418;2023-02-27T17:38:56;8.85;;;4.03;;
78404;SDS011;67689;43.592;1.418;2023-02-27T17:41:24;8.15;;;3.90;;
78404;SDS011;67689;43.592;1.418;2023-02-27T17:43:53;7.65;;;4.00;;
78404;SDS011;67689;43.592;1.418;2023-02-27T17:46:20;11.20;;;3.72;;
78404;SDS011;67689;43.592;1.418;2023-02-27T17:48:49;8.63;;;3.85;;
78404;SDS011;67689;43.592;1.418;2023-02-27T17:51:15;9.90;;;4.47;;
78404;SDS011;67689;43.592;1.418;2023-02-27T17:53:42;13.05;;;4.97;;
78404;SDS011;67689;43.592;1.418;2023-02-27T17:56:08;12.52;;;5.60;;